createdAt,value
2018-07-06T00:00:41.283Z,3.13
2018-07-06T00:03:20.755Z,2.10
2018-07-06T00:06:00.419Z,3.57
2018-07-06T00:08:39.970Z,2.00
2018-07-06T00:11:19.527Z,2.70
2018-07-06T00:13:59.179Z,2.43
2018-07-06T00:16:38.756Z,2.07
2018-07-06T00:19:18.247Z,2.20
2018-07-06T00:21:57.843Z,1.73
2018-07-06T00:24:37.360Z,2.53
2018-07-06T00:27:17.016Z,2.33
2018-07-06T00:29:56.637Z,1.83
2018-07-06T00:32:36.178Z,2.00
2018-07-06T00:35:15.765Z,3.30
2018-07-06T00:37:55.469Z,3.33
2018-07-06T00:40:35.027Z,2.63
2018-07-06T00:43:14.603Z,2.47
2018-07-06T00:45:54.207Z,2.30
2018-07-06T00:48:33.756Z,2.07
2018-07-06T00:51:13.246Z,4.87
2018-07-06T00:53:52.738Z,1.93
2018-07-06T00:56:32.280Z,3.10
2018-07-06T00:59:11.878Z,3.20
2018-07-06T01:01:51.663Z,4.00
2018-07-06T01:04:31.099Z,2.13
2018-07-06T01:07:10.667Z,3.37
2018-07-06T01:09:50.199Z,3.20
2018-07-06T01:12:35.141Z,4.10
2018-07-06T01:15:20.204Z,2.63
2018-07-06T01:17:59.815Z,3.10
2018-07-06T01:20:39.303Z,3.03
2018-07-06T01:23:18.786Z,3.20
2018-07-06T01:25:58.407Z,3.60
2018-07-06T01:28:38.095Z,2.83
2018-07-06T01:31:17.611Z,2.10
2018-07-06T01:33:57.147Z,2.47
2018-07-06T01:36:36.744Z,2.63
2018-07-06T01:39:16.455Z,2.57
2018-07-06T01:41:55.978Z,5.37
2018-07-06T01:44:35.663Z,2.50
2018-07-06T01:47:15.347Z,2.40
2018-07-06T01:49:54.935Z,3.20
2018-07-06T01:52:34.492Z,2.73
2018-07-06T01:55:13.995Z,2.47
2018-07-06T01:57:53.543Z,4.53
2018-07-06T02:00:33.175Z,3.50
2018-07-06T02:03:13.123Z,3.20
2018-07-06T02:05:52.655Z,2.67
2018-07-06T02:08:32.499Z,5.27
2018-07-06T02:11:12.174Z,3.00
2018-07-06T02:13:51.711Z,2.87
2018-07-06T02:16:31.354Z,2.97
2018-07-06T02:19:10.938Z,3.60
2018-07-06T02:21:50.636Z,2.60
2018-07-06T02:24:30.427Z,3.10
2018-07-06T02:27:10.023Z,2.90
2018-07-06T02:29:49.628Z,4.40
2018-07-06T02:32:29.205Z,4.40
2018-07-06T02:35:08.820Z,3.30
2018-07-06T02:37:48.391Z,2.97
2018-07-06T02:40:27.996Z,4.43
2018-07-06T02:43:07.591Z,3.30
2018-07-06T02:45:47.187Z,4.80
2018-07-06T02:48:26.743Z,3.50
2018-07-06T02:51:06.355Z,4.17
2018-07-06T02:53:45.768Z,3.90
2018-07-06T02:56:25.337Z,4.43
2018-07-06T02:59:04.814Z,3.20
2018-07-06T03:01:44.415Z,4.73
2018-07-06T03:04:23.951Z,3.80
2018-07-06T03:07:03.529Z,3.23
2018-07-06T03:09:43.093Z,3.73
2018-07-06T03:12:22.578Z,3.80
2018-07-06T03:15:02.132Z,7.03
2018-07-06T03:17:41.666Z,4.00
2018-07-06T03:20:21.121Z,3.47
2018-07-06T03:23:00.605Z,3.40
2018-07-06T03:25:40.123Z,3.37
2018-07-06T03:28:19.682Z,2.90
2018-07-06T03:30:59.179Z,3.57
2018-07-06T03:33:38.743Z,3.23
2018-07-06T03:36:18.636Z,3.40
2018-07-06T03:38:58.167Z,3.60
2018-07-06T03:41:37.642Z,3.10
2018-07-06T03:44:17.064Z,4.33
2018-07-06T03:46:56.556Z,4.87
2018-07-06T03:49:36.144Z,5.27
2018-07-06T03:52:15.698Z,3.10
2018-07-06T03:54:56.216Z,4.70
2018-07-06T03:57:36.736Z,3.47
2018-07-06T04:00:16.301Z,4.43
2018-07-06T04:02:55.793Z,5.10
2018-07-06T04:05:35.563Z,3.90
2018-07-06T04:08:15.283Z,3.67
2018-07-06T04:10:54.783Z,4.53
2018-07-06T04:13:34.315Z,4.23
2018-07-06T04:16:13.964Z,4.33
2018-07-06T04:18:57.730Z,4.47
2018-07-06T04:21:37.452Z,4.77
2018-07-06T04:24:17.096Z,3.87
2018-07-06T04:26:56.645Z,3.43
2018-07-06T04:29:36.316Z,6.33
2018-07-06T04:32:15.983Z,5.80
2018-07-06T04:34:55.675Z,4.03
2018-07-06T04:37:35.317Z,3.93
2018-07-06T04:40:15.216Z,4.53
2018-07-06T04:42:55.496Z,6.57
2018-07-06T04:45:35.687Z,3.87
2018-07-06T04:48:16.108Z,5.43
2018-07-06T04:50:55.752Z,4.80
2018-07-06T04:53:35.331Z,4.70
2018-07-06T04:56:14.982Z,4.63
2018-07-06T04:58:54.603Z,4.20
2018-07-06T05:01:34.469Z,8.07
2018-07-06T05:04:14.974Z,6.20
2018-07-06T05:06:54.538Z,6.13
2018-07-06T05:09:34.240Z,10.70
2018-07-06T05:12:13.796Z,9.73
2018-07-06T05:14:53.326Z,15.17
2018-07-06T05:17:32.874Z,10.03
2018-07-06T05:20:12.533Z,5.27
2018-07-06T05:22:52.212Z,5.77
2018-07-06T05:25:31.901Z,5.07
2018-07-06T05:28:11.521Z,6.30
2018-07-06T05:30:51.097Z,5.37
2018-07-06T05:33:30.694Z,7.10
2018-07-06T05:36:10.234Z,6.40
2018-07-06T05:41:43.048Z,8.00
2018-07-06T05:44:22.932Z,6.70
2018-07-06T05:47:02.479Z,4.57
2018-07-06T05:49:42.140Z,5.70
2018-07-06T05:52:21.805Z,7.67
2018-07-06T05:55:01.463Z,5.00
2018-07-06T05:57:41.227Z,6.00
2018-07-06T06:00:20.848Z,6.13
2018-07-06T06:03:00.516Z,12.03
2018-07-06T06:05:40.115Z,11.63
2018-07-06T06:08:07.315Z,12.87
2018-07-06T06:10:35.659Z,17.47
2018-07-06T06:13:04.011Z,17.40
2018-07-06T06:15:32.343Z,16.57
2018-07-06T06:18:00.751Z,24.23
2018-07-06T06:20:29.165Z,20.90
2018-07-06T06:22:57.579Z,29.27
2018-07-06T06:25:25.943Z,24.50
2018-07-06T06:27:54.244Z,24.13
2018-07-06T06:30:22.603Z,21.53
2018-07-06T06:32:52.983Z,25.67
2018-07-06T06:35:21.368Z,16.97
2018-07-06T06:37:49.809Z,20.67
2018-07-06T06:40:18.187Z,18.03
2018-07-06T06:42:46.582Z,17.93
2018-07-06T06:45:14.971Z,20.83
2018-07-06T06:47:43.358Z,18.97
2018-07-06T06:50:11.776Z,22.97
2018-07-06T06:52:40.246Z,23.97
2018-07-06T06:55:08.595Z,23.90
2018-07-06T06:57:37.007Z,31.77
2018-07-06T07:00:05.633Z,27.13
2018-07-06T07:02:34.015Z,27.60
2018-07-06T07:05:02.433Z,15.70
2018-07-06T07:07:30.890Z,13.70
2018-07-06T07:09:59.250Z,15.13
2018-07-06T07:12:27.727Z,13.77
2018-07-06T07:14:56.159Z,19.80
2018-07-06T07:17:24.819Z,26.57
2018-07-06T07:19:53.213Z,27.83
2018-07-06T07:22:21.835Z,24.17
2018-07-06T07:24:50.268Z,24.17
2018-07-06T07:27:18.734Z,42.77
2018-07-06T07:29:47.112Z,21.67
2018-07-06T07:32:15.521Z,18.97
2018-07-06T07:34:44.027Z,19.03
2018-07-06T07:37:12.485Z,14.70
2018-07-06T07:39:40.925Z,18.13
2018-07-06T07:42:09.348Z,20.53
2018-07-06T07:44:37.843Z,24.60
2018-07-06T07:47:06.184Z,28.67
2018-07-06T07:49:34.549Z,28.20
2018-07-06T07:52:14.262Z,32.33
2018-07-06T07:54:48.176Z,29.53
2018-07-06T07:57:16.566Z,32.87
2018-07-06T07:59:45.292Z,26.60
2018-07-06T08:02:13.728Z,39.07
2018-07-06T08:04:42.400Z,28.17
2018-07-06T08:07:10.736Z,23.30
2018-07-06T08:09:39.179Z,26.43
2018-07-06T08:12:07.550Z,24.50
2018-07-06T08:14:36.012Z,26.17
2018-07-06T08:17:04.436Z,25.67
2018-07-06T08:19:32.864Z,29.53
2018-07-06T08:22:01.193Z,28.07
2018-07-06T08:24:29.593Z,21.97
2018-07-06T08:26:57.930Z,27.70
2018-07-06T08:29:26.443Z,28.10
2018-07-06T08:31:55.078Z,26.67
2018-07-06T08:34:34.810Z,30.20
2018-07-06T08:37:44.732Z,26.43
2018-07-06T08:40:13.425Z,29.63
2018-07-06T08:42:43.339Z,27.43
2018-07-06T08:45:12.293Z,29.13
2018-07-06T08:47:40.731Z,30.60
2018-07-06T08:50:09.394Z,28.30
2018-07-06T08:52:38.607Z,30.40
2018-07-06T08:55:07.385Z,28.77
2018-07-06T08:57:36.493Z,30.90
2018-07-06T09:00:05.012Z,31.40
2018-07-06T09:02:55.821Z,32.33
2018-07-06T09:05:24.283Z,28.33
2018-07-06T09:07:52.780Z,29.40
2018-07-06T09:10:21.141Z,29.37
2018-07-06T09:12:49.593Z,30.20
2018-07-06T09:15:17.951Z,29.20
2018-07-06T09:17:46.339Z,28.73
2018-07-06T09:20:14.943Z,32.67
2018-07-06T09:22:43.499Z,30.17
2018-07-06T09:25:11.646Z,32.20
2018-07-06T09:27:40.041Z,30.87
2018-07-06T09:30:08.428Z,32.53
2018-07-06T09:32:36.771Z,30.00
2018-07-06T09:35:05.303Z,32.33
2018-07-06T09:37:33.943Z,29.43
2018-07-06T09:40:02.423Z,32.67
2018-07-06T09:42:30.784Z,34.07
2018-07-06T09:44:59.138Z,30.97
2018-07-06T09:47:27.525Z,30.20
2018-07-06T09:49:55.891Z,35.00
2018-07-06T09:52:24.257Z,33.33
2018-07-06T09:54:52.575Z,34.23
2018-07-06T09:57:20.941Z,33.87
2018-07-06T09:59:49.259Z,36.63
2018-07-06T10:02:17.623Z,36.33
2018-07-06T10:04:46.018Z,34.67
2018-07-06T10:07:14.373Z,33.97
2018-07-06T10:09:42.737Z,35.77
2018-07-06T10:12:11.101Z,34.60
2018-07-06T10:14:39.888Z,30.30
2018-07-06T10:17:08.235Z,32.27
2018-07-06T10:19:36.762Z,35.00
2018-07-06T10:22:05.940Z,34.03
2018-07-06T10:24:34.393Z,30.20
2018-07-06T10:27:03.679Z,34.30
2018-07-06T10:29:47.114Z,31.70
2018-07-06T10:32:19.309Z,34.03
2018-07-06T10:34:47.676Z,33.23
2018-07-06T10:37:16.659Z,28.07
2018-07-06T10:39:45.181Z,27.93
2018-07-06T10:42:13.378Z,30.77
2018-07-06T10:44:41.784Z,27.17
2018-07-06T10:47:10.756Z,27.80
2018-07-06T10:49:39.247Z,26.47
2018-07-06T10:52:08.082Z,23.23
2018-07-06T10:54:37.487Z,26.20
2018-07-06T10:57:06.335Z,25.90
2018-07-06T10:59:34.777Z,24.63
2018-07-06T11:02:03.483Z,23.37
2018-07-06T11:04:32.714Z,25.83
2018-07-06T11:07:01.848Z,27.63
2018-07-06T11:09:30.185Z,24.90
2018-07-06T11:11:58.633Z,22.63
2018-07-06T11:14:27.951Z,21.27
2018-07-06T11:16:56.303Z,21.37
2018-07-06T11:19:24.644Z,21.97
2018-07-06T11:21:53.027Z,18.77
2018-07-06T11:24:21.423Z,25.63
2018-07-06T11:26:49.794Z,20.60
2018-07-06T11:29:18.203Z,18.93
2018-07-06T11:31:46.625Z,19.83
2018-07-06T11:34:15.116Z,16.80
2018-07-06T11:36:43.576Z,18.00
2018-07-06T11:39:12.055Z,14.27
2018-07-06T11:41:40.407Z,15.30
2018-07-06T11:47:06.607Z,16.30
2018-07-06T11:49:34.990Z,13.90
2018-07-06T11:52:03.373Z,13.03
2018-07-06T11:54:31.748Z,13.37
2018-07-06T11:57:00.150Z,13.33
2018-07-06T11:59:28.656Z,12.60
2018-07-06T12:01:56.992Z,14.23
2018-07-06T12:04:25.378Z,13.03
2018-07-06T12:06:53.836Z,12.67
2018-07-06T12:09:22.213Z,15.47
2018-07-06T12:11:50.787Z,12.03
2018-07-06T12:14:19.375Z,13.17
2018-07-06T12:16:47.739Z,14.67
2018-07-06T12:19:16.451Z,12.37
2018-07-06T12:21:44.801Z,12.97
2018-07-06T12:24:13.326Z,12.13
2018-07-06T12:26:41.657Z,9.43
2018-07-06T12:29:10.092Z,11.57
2018-07-06T12:31:38.508Z,11.03
2018-07-06T12:34:06.909Z,10.83
2018-07-06T12:36:35.389Z,8.77
2018-07-06T12:39:04.675Z,13.60
2018-07-06T12:41:33.151Z,12.17
2018-07-06T12:44:01.620Z,10.77
2018-07-06T12:46:29.944Z,8.90
2018-07-06T12:48:58.307Z,10.37
2018-07-06T12:51:26.864Z,9.30
2018-07-06T12:54:26.002Z,10.40
2018-07-06T12:56:54.424Z,9.97
2018-07-06T12:59:22.896Z,8.53
2018-07-06T13:01:51.330Z,9.80
2018-07-06T13:04:19.700Z,8.50
2018-07-06T13:06:48.071Z,9.67
2018-07-06T13:09:16.475Z,8.50
2018-07-06T13:11:44.808Z,11.03
2018-07-06T13:14:13.173Z,8.60
2018-07-06T13:16:41.602Z,7.57
2018-07-06T13:19:09.959Z,7.80
2018-07-06T13:21:38.357Z,10.47
2018-07-06T13:24:07.575Z,7.73
2018-07-06T13:26:35.997Z,9.27
2018-07-06T13:29:04.541Z,6.83
2018-07-06T13:31:33.070Z,7.07
2018-07-06T13:34:03.335Z,7.77
2018-07-06T13:36:31.710Z,6.67
2018-07-06T13:39:00.117Z,7.27
2018-07-06T13:41:28.629Z,7.43
2018-07-06T13:43:57.055Z,8.87
2018-07-06T13:46:25.429Z,7.50
2018-07-06T13:48:53.856Z,7.70
2018-07-06T13:51:22.312Z,7.40
2018-07-06T13:53:50.780Z,6.13
2018-07-06T13:56:19.168Z,8.80
2018-07-06T13:58:47.525Z,6.80
2018-07-06T14:01:15.916Z,8.23
2018-07-06T14:03:44.277Z,9.03
2018-07-06T14:06:12.684Z,6.43
2018-07-06T14:08:41.035Z,6.20
2018-07-06T14:11:09.520Z,8.40
2018-07-06T14:13:37.897Z,5.30
2018-07-06T14:16:06.429Z,7.20
2018-07-06T14:18:34.855Z,6.87
2018-07-06T14:21:03.288Z,7.43
2018-07-06T14:23:31.754Z,6.03
2018-07-06T14:26:00.092Z,5.53
2018-07-06T14:28:28.456Z,5.27
2018-07-06T14:30:56.944Z,5.53
2018-07-06T14:33:25.369Z,7.23
2018-07-06T14:35:53.765Z,5.80
2018-07-06T14:38:22.238Z,5.97
2018-07-06T14:40:50.664Z,5.73
2018-07-06T14:43:19.046Z,5.23
2018-07-06T14:45:47.370Z,5.70
2018-07-06T14:48:15.731Z,8.50
2018-07-06T14:50:44.089Z,7.27
2018-07-06T14:53:13.699Z,5.57
2018-07-06T14:55:42.038Z,6.03
2018-07-06T14:58:10.388Z,5.13
2018-07-06T15:00:39.015Z,5.33
2018-07-06T15:03:07.483Z,6.50
2018-07-06T15:05:35.926Z,4.70
2018-07-06T15:08:04.357Z,6.63
2018-07-06T15:10:32.666Z,4.37
2018-07-06T15:13:01.049Z,5.43
2018-07-06T15:15:29.372Z,5.20
2018-07-06T15:17:58.079Z,6.43
2018-07-06T15:20:26.563Z,5.77
2018-07-06T15:22:54.933Z,5.43
2018-07-06T15:25:23.345Z,4.90
2018-07-06T15:27:51.777Z,5.50
2018-07-06T15:30:20.116Z,6.60
2018-07-06T15:32:48.534Z,4.27
2018-07-06T15:35:16.883Z,4.50
2018-07-06T15:37:45.255Z,5.63
2018-07-06T15:40:13.609Z,6.60
2018-07-06T15:42:42.000Z,7.83
2018-07-06T15:45:10.362Z,8.23
2018-07-06T15:47:38.803Z,5.53
2018-07-06T15:50:07.295Z,5.47
2018-07-06T15:52:35.680Z,6.63
2018-07-06T15:55:04.033Z,5.60
2018-07-06T15:57:32.377Z,7.73
2018-07-06T16:00:00.747Z,6.90
2018-07-06T16:02:29.205Z,4.83
2018-07-06T16:04:57.571Z,5.03
2018-07-06T16:07:26.106Z,5.17
2018-07-06T16:09:54.448Z,4.70
2018-07-06T16:12:23.069Z,7.43
2018-07-06T16:14:51.556Z,5.40
2018-07-06T16:17:19.951Z,4.93
2018-07-06T16:19:48.296Z,6.63
2018-07-06T16:22:16.664Z,4.93
2018-07-06T16:24:44.994Z,7.13
2018-07-06T16:27:13.653Z,6.83
2018-07-06T16:29:42.019Z,3.90
2018-07-06T16:32:10.457Z,5.27
2018-07-06T16:34:38.841Z,6.37
2018-07-06T16:37:07.212Z,3.90
2018-07-06T16:39:35.552Z,7.80
2018-07-06T16:42:03.927Z,5.73
2018-07-06T16:44:32.356Z,5.30
2018-07-06T16:47:00.732Z,5.20
2018-07-06T16:49:29.183Z,4.87
2018-07-06T16:51:57.631Z,4.80
2018-07-06T16:54:25.996Z,4.03
2018-07-06T16:56:54.396Z,6.23
2018-07-06T16:59:22.781Z,5.90
2018-07-06T17:02:02.503Z,4.70
2018-07-06T17:04:31.759Z,6.93
2018-07-06T17:07:00.144Z,3.83
2018-07-06T17:09:28.563Z,4.33
2018-07-06T17:11:56.912Z,5.47
2018-07-06T17:14:25.277Z,6.13
2018-07-06T17:16:53.606Z,4.60
2018-07-06T17:19:22.125Z,4.27
2018-07-06T17:21:50.453Z,4.37
2018-07-06T17:24:18.873Z,4.10
2018-07-06T17:26:48.160Z,3.50
2018-07-06T17:29:16.523Z,6.80
2018-07-06T17:31:45.026Z,4.00
2018-07-06T17:34:13.558Z,4.17
2018-07-06T17:36:41.976Z,3.70
2018-07-06T17:39:10.378Z,3.70
2018-07-06T17:41:38.767Z,4.57
2018-07-06T17:44:08.238Z,4.57
2018-07-06T17:46:36.677Z,3.90
2018-07-06T17:49:05.140Z,3.93
2018-07-06T17:51:33.506Z,5.03
2018-07-06T17:54:01.876Z,4.00
2018-07-06T17:56:30.356Z,4.10
2018-07-06T17:58:58.764Z,3.27
2018-07-06T18:01:27.177Z,3.67
2018-07-06T18:03:55.509Z,3.67
2018-07-06T18:06:23.920Z,3.63
2018-07-06T18:08:52.283Z,3.47
2018-07-06T18:11:20.652Z,3.77
2018-07-06T18:13:49.038Z,3.57
2018-07-06T18:16:17.660Z,3.20
2018-07-06T18:18:46.107Z,3.30
2018-07-06T18:21:14.504Z,2.60
2018-07-06T18:23:42.988Z,3.20
2018-07-06T18:26:11.432Z,4.93
2018-07-06T18:28:39.836Z,4.30
2018-07-06T18:31:08.228Z,4.00
2018-07-06T18:33:37.782Z,5.03
2018-07-06T18:36:06.281Z,3.80
2018-07-06T18:38:35.028Z,3.20
2018-07-06T18:41:03.403Z,6.53
2018-07-06T18:43:31.819Z,4.33
2018-07-06T18:46:00.213Z,3.47
2018-07-06T18:48:28.575Z,3.80
2018-07-06T18:50:57.051Z,4.10
2018-07-06T18:53:25.411Z,2.73
2018-07-06T18:55:53.831Z,4.07
2018-07-06T18:58:22.203Z,5.03
2018-07-06T19:00:50.738Z,7.00
2018-07-06T19:03:19.224Z,6.10
2018-07-06T19:05:47.876Z,9.03
2018-07-06T19:08:16.301Z,4.37
2018-07-06T19:10:44.721Z,5.57
2018-07-06T19:13:13.091Z,6.20
2018-07-06T19:15:41.541Z,6.27
2018-07-06T19:18:09.893Z,5.17
2018-07-06T19:20:38.294Z,5.80
2018-07-06T19:23:06.780Z,4.37
2018-07-06T19:25:35.172Z,3.77
2018-07-06T19:28:03.571Z,5.10
2018-07-06T19:30:32.100Z,7.83
2018-07-06T19:33:00.459Z,5.63
2018-07-06T19:35:29.188Z,4.57
2018-07-06T19:37:57.599Z,5.77
2018-07-06T19:40:26.084Z,5.20
2018-07-06T19:42:54.538Z,6.80
2018-07-06T19:45:23.529Z,3.93
2018-07-06T19:47:51.893Z,3.67
2018-07-06T19:50:20.262Z,4.33
2018-07-06T19:52:49.465Z,5.03
2018-07-06T19:55:18.052Z,6.00
2018-07-06T19:57:46.380Z,3.70
2018-07-06T20:00:14.810Z,5.63
2018-07-06T20:02:43.273Z,4.87
2018-07-06T20:05:11.700Z,4.90
2018-07-06T20:07:40.165Z,6.73
2018-07-06T20:10:08.553Z,5.43
2018-07-06T20:12:36.939Z,5.57
2018-07-06T20:15:05.488Z,6.10
2018-07-06T20:17:34.227Z,5.67
2018-07-06T20:20:02.663Z,6.17
2018-07-06T20:22:31.020Z,6.10
2018-07-06T20:24:59.375Z,7.13
2018-07-06T20:27:27.736Z,8.70
2018-07-06T20:29:56.063Z,4.40
2018-07-06T20:32:24.455Z,5.93
2018-07-06T20:34:52.835Z,6.33
2018-07-06T20:37:23.592Z,7.17
2018-07-06T20:39:51.980Z,5.47
2018-07-06T20:42:20.350Z,6.63
2018-07-06T20:44:48.695Z,6.87
2018-07-06T20:47:17.170Z,3.57
2018-07-06T20:49:45.548Z,3.73
2018-07-06T20:52:13.963Z,4.57
2018-07-06T20:54:42.341Z,5.60
2018-07-06T20:57:10.759Z,4.77
2018-07-06T20:59:39.110Z,4.47
2018-07-06T21:02:07.549Z,3.20
2018-07-06T21:04:36.011Z,4.97
2018-07-06T21:07:04.504Z,4.97
2018-07-06T21:09:33.064Z,4.40
2018-07-06T21:12:01.404Z,3.13
2018-07-06T21:14:29.799Z,4.30
2018-07-06T21:16:58.107Z,5.17
2018-07-06T21:19:26.516Z,4.83
2018-07-06T21:21:54.875Z,3.47
2018-07-06T21:24:23.375Z,3.93
2018-07-06T21:26:51.756Z,4.53
2018-07-06T21:29:20.110Z,5.77
2018-07-06T21:31:48.590Z,3.80
2018-07-06T21:34:18.135Z,3.67
2018-07-06T21:36:46.667Z,5.27
2018-07-06T21:39:15.290Z,4.53
2018-07-06T21:41:44.104Z,5.03
2018-07-06T21:44:12.624Z,4.60
2018-07-06T21:46:41.031Z,5.37
2018-07-06T21:49:09.556Z,3.40
2018-07-06T21:51:38.297Z,3.93
2018-07-06T21:54:06.847Z,4.00
2018-07-06T21:56:35.234Z,3.30
2018-07-06T21:59:04.149Z,3.50
2018-07-06T22:01:32.714Z,3.97
2018-07-06T22:04:01.376Z,4.23
2018-07-06T22:06:30.192Z,4.07
2018-07-06T22:08:59.277Z,4.20
2018-07-06T22:11:27.874Z,5.20
2018-07-06T22:13:56.938Z,4.10
2018-07-06T22:16:25.821Z,4.30
2018-07-06T22:18:54.836Z,5.07
2018-07-06T22:21:23.767Z,6.33
2018-07-06T22:23:52.558Z,5.87
2018-07-06T22:26:20.911Z,4.37
2018-07-06T22:28:49.288Z,4.60
2018-07-06T22:31:17.633Z,5.60
2018-07-06T22:33:45.997Z,3.90
2018-07-06T22:36:14.364Z,5.03
2018-07-06T22:38:42.793Z,12.20
2018-07-06T22:41:11.153Z,6.67
2018-07-06T22:43:39.541Z,4.83
2018-07-06T22:46:07.908Z,4.00
2018-07-06T22:48:36.297Z,5.40
2018-07-06T22:51:04.640Z,7.80
2018-07-06T22:53:32.995Z,5.33
2018-07-06T22:56:01.381Z,4.37
2018-07-06T22:58:29.766Z,7.13
2018-07-06T23:00:58.153Z,6.63
2018-07-06T23:03:26.506Z,5.20
2018-07-06T23:05:54.911Z,5.03
2018-07-06T23:08:23.283Z,6.97
2018-07-06T23:10:51.663Z,7.00
2018-07-06T23:13:21.201Z,7.13
2018-07-06T23:15:49.588Z,5.57
2018-07-06T23:18:17.969Z,4.80
2018-07-06T23:20:46.406Z,6.97
2018-07-06T23:23:14.965Z,6.17
2018-07-06T23:25:47.454Z,5.97
2018-07-06T23:28:15.923Z,4.40
2018-07-06T23:30:44.364Z,5.73
2018-07-06T23:33:13.195Z,7.20
2018-07-06T23:35:41.544Z,7.37
2018-07-06T23:38:09.943Z,7.20
2018-07-06T23:40:38.272Z,5.10
2018-07-06T23:43:06.715Z,6.93
2018-07-06T23:45:35.155Z,5.87
2018-07-06T23:48:03.617Z,8.10
2018-07-06T23:50:32.067Z,6.03
2018-07-06T23:53:00.427Z,6.43
2018-07-06T23:55:28.805Z,6.53
2018-07-06T23:57:57.244Z,6.33
